sensor_id;sensor_type;location;lat;lon;timestamp;temperature;humidity
64874;HTU21D;51367;45.204;38.576;2023-02-13T00:02:04;-1.42;80.20
64874;HTU21D;51367;45.204;38.576;2023-02-13T00:04:30;-1.43;80.21
64874;HTU21D;51367;45.204;38.576;2023-02-13T00:06:56;-1.45;80.20
64874;HTU21D;51367;45.204;38.576;2023-02-13T00:09:22;-1.46;80.28
64874;HTU21D;51367;45.204;38.576;2023-02-13T00:11:48;-1.46;80.29
64874;HTU21D;51367;45.204;38.576;2023-02-13T00:14:14;-1.43;80.31
64874;HTU21D;51367;45.204;38.576;2023-02-13T00:16:40;-1.41;80.29
64874;HTU21D;51367;45.204;38.576;2023-02-13T00:19:06;-1.39;80.30
64874;HTU21D;51367;45.204;38.576;2023-02-13T00:21:32;-1.40;80.20
64874;HTU21D;51367;45.204;38.576;2023-02-13T00:23:58;-1.43;80.22
64874;HTU21D;51367;45.204;38.576;2023-02-13T00:26:24;-1.44;80.22
64874;HTU21D;51367;45.204;38.576;2023-02-13T00:28:50;-1.44;80.21
64874;HTU21D;51367;45.204;38.576;2023-02-13T00:31:18;-1.44;80.24
64874;HTU21D;51367;45.204;38.576;2023-02-13T00:33:45;-1.45;80.25
64874;HTU21D;51367;45.204;38.576;2023-02-13T00:36:12;-1.44;80.26
64874;HTU21D;51367;45.204;38.576;2023-02-13T00:38:40;-1.44;80.22
64874;HTU21D;51367;45.204;38.576;2023-02-13T00:41:06;-1.42;80.20
64874;HTU21D;51367;45.204;38.576;2023-02-13T00:43:34;-1.44;80.19
64874;HTU21D;51367;45.204;38.576;2023-02-13T00:46:02;-1.44;80.23
64874;HTU21D;51367;45.204;38.576;2023-02-13T00:48:30;-1.44;80.18
64874;HTU21D;51367;45.204;38.576;2023-02-13T00:50:56;-1.48;80.18
64874;HTU21D;51367;45.204;38.576;2023-02-13T00:53:23;-1.49;80.20
64874;HTU21D;51367;45.204;38.576;2023-02-13T00:55:50;-1.50;80.27
64874;HTU21D;51367;45.204;38.576;2023-02-13T00:58:17;-1.49;80.32
64874;HTU21D;51367;45.204;38.576;2023-02-13T01:00:44;-1.47;80.32
64874;HTU21D;51367;45.204;38.576;2023-02-13T01:03:17;-1.45;80.30
64874;HTU21D;51367;45.204;38.576;2023-02-13T01:05:44;-1.42;80.29
64874;HTU21D;51367;45.204;38.576;2023-02-13T01:08:12;-1.41;80.27
64874;HTU21D;51367;45.204;38.576;2023-02-13T01:10:39;-1.38;80.23
64874;HTU21D;51367;45.204;38.576;2023-02-13T01:13:08;-1.34;80.19
64874;HTU21D;51367;45.204;38.576;2023-02-13T01:15:35;-1.34;80.16
64874;HTU21D;51367;45.204;38.576;2023-02-13T01:18:01;-1.34;80.11
64874;HTU21D;51367;45.204;38.576;2023-02-13T01:20:28;-1.34;80.09
64874;HTU21D;51367;45.204;38.576;2023-02-13T01:22:54;-1.35;80.08
64874;HTU21D;51367;45.204;38.576;2023-02-13T01:25:20;-1.35;80.07
64874;HTU21D;51367;45.204;38.576;2023-02-13T01:27:47;-1.36;80.05
64874;HTU21D;51367;45.204;38.576;2023-02-13T01:30:16;-1.38;80.04
64874;HTU21D;51367;45.204;38.576;2023-02-13T01:32:44;-1.39;80.04
64874;HTU21D;51367;45.204;38.576;2023-02-13T01:35:12;-1.40;80.07
64874;HTU21D;51367;45.204;38.576;2023-02-13T01:37:39;-1.39;80.09
64874;HTU21D;51367;45.204;38.576;2023-02-13T01:40:09;-1.41;80.10
64874;HTU21D;51367;45.204;38.576;2023-02-13T01:42:35;-1.41;80.11
64874;HTU21D;51367;45.204;38.576;2023-02-13T01:45:04;-1.41;80.08
64874;HTU21D;51367;45.204;38.576;2023-02-13T01:47:39;-1.41;80.09
64874;HTU21D;51367;45.204;38.576;2023-02-13T01:50:14;-1.42;80.07
64874;HTU21D;51367;45.204;38.576;2023-02-13T01:52:54;-1.42;80.07
64874;HTU21D;51367;45.204;38.576;2023-02-13T01:55:23;-1.43;80.08
64874;HTU21D;51367;45.204;38.576;2023-02-13T01:57:57;-1.45;80.07
64874;HTU21D;51367;45.204;38.576;2023-02-13T02:00:26;-1.43;80.08
64874;HTU21D;51367;45.204;38.576;2023-02-13T02:03:22;-1.45;80.11
64874;HTU21D;51367;45.204;38.576;2023-02-13T02:05:50;-1.45;80.11
64874;HTU21D;51367;45.204;38.576;2023-02-13T02:08:17;-1.45;80.11
64874;HTU21D;51367;45.204;38.576;2023-02-13T02:10:50;-1.46;80.11
64874;HTU21D;51367;45.204;38.576;2023-02-13T02:13:19;-1.46;80.11
64874;HTU21D;51367;45.204;38.576;2023-02-13T02:15:47;-1.46;80.11
64874;HTU21D;51367;45.204;38.576;2023-02-13T02:18:20;-1.47;80.08
64874;HTU21D;51367;45.204;38.576;2023-02-13T02:26:33;-1.53;80.14
64874;HTU21D;51367;45.204;38.576;2023-02-13T02:29:36;-1.54;80.13
64874;HTU21D;51367;45.204;38.576;2023-02-13T02:35:18;-1.61;80.11
64874;HTU21D;51367;45.204;38.576;2023-02-13T02:41:11;-1.65;80.17
64874;HTU21D;51367;45.204;38.576;2023-02-13T02:46:34;-1.73;80.17
64874;HTU21D;51367;45.204;38.576;2023-02-13T02:51:59;-1.78;80.19
64874;HTU21D;51367;45.204;38.576;2023-02-13T02:55:05;-1.83;80.21
64874;HTU21D;51367;45.204;38.576;2023-02-13T02:57:40;-1.85;80.21
64874;HTU21D;51367;45.204;38.576;2023-02-13T03:00:28;-1.88;80.23
64874;HTU21D;51367;45.204;38.576;2023-02-13T03:03:21;-1.91;80.25
64874;HTU21D;51367;45.204;38.576;2023-02-13T03:06:29;-1.91;80.29
64874;HTU21D;51367;45.204;38.576;2023-02-13T03:09:01;-1.91;80.28
64874;HTU21D;51367;45.204;38.576;2023-02-13T03:11:50;-1.93;80.29
64874;HTU21D;51367;45.204;38.576;2023-02-13T03:14:37;-1.95;80.29
64874;HTU21D;51367;45.204;38.576;2023-02-13T03:17:03;-1.95;80.30
64874;HTU21D;51367;45.204;38.576;2023-02-13T03:31:33;-1.99;80.32
64874;HTU21D;51367;45.204;38.576;2023-02-13T03:34:16;-1.99;80.33
64874;HTU21D;51367;45.204;38.576;2023-02-13T03:39:59;-1.99;80.33
64874;HTU21D;51367;45.204;38.576;2023-02-13T03:42:37;-2.00;80.34
64874;HTU21D;51367;45.204;38.576;2023-02-13T03:45:15;-1.99;80.35
64874;HTU21D;51367;45.204;38.576;2023-02-13T03:48:03;-1.95;80.35
64874;HTU21D;51367;45.204;38.576;2023-02-13T03:50:37;-1.93;80.36
64874;HTU21D;51367;45.204;38.576;2023-02-13T03:53:08;-1.92;80.36
64874;HTU21D;51367;45.204;38.576;2023-02-13T03:55:44;-1.88;80.36
64874;HTU21D;51367;45.204;38.576;2023-02-13T03:58:34;-1.88;80.33
64874;HTU21D;51367;45.204;38.576;2023-02-13T04:01:21;-1.86;80.29
64874;HTU21D;51367;45.204;38.576;2023-02-13T04:09:09;-1.84;80.24
64874;HTU21D;51367;45.204;38.576;2023-02-13T04:14:54;-1.84;80.20
64874;HTU21D;51367;45.204;38.576;2023-02-13T04:17:26;-1.87;80.17
64874;HTU21D;51367;45.204;38.576;2023-02-13T04:19:55;-1.87;80.19
64874;HTU21D;51367;45.204;38.576;2023-02-13T04:22:21;-1.90;80.21
64874;HTU21D;51367;45.204;38.576;2023-02-13T04:24:47;-1.90;80.23
64874;HTU21D;51367;45.204;38.576;2023-02-13T04:27:15;-1.89;80.25
64874;HTU21D;51367;45.204;38.576;2023-02-13T04:29:42;-1.90;80.26
64874;HTU21D;51367;45.204;38.576;2023-02-13T04:32:11;-1.91;80.27
64874;HTU21D;51367;45.204;38.576;2023-02-13T04:34:38;-1.90;80.29
64874;HTU21D;51367;45.204;38.576;2023-02-13T04:37:04;-1.91;80.30
64874;HTU21D;51367;45.204;38.576;2023-02-13T04:39:30;-1.92;80.30
64874;HTU21D;51367;45.204;38.576;2023-02-13T04:41:56;-1.90;80.31
64874;HTU21D;51367;45.204;38.576;2023-02-13T04:44:22;-1.91;80.33
64874;HTU21D;51367;45.204;38.576;2023-02-13T04:46:48;-1.89;80.34
64874;HTU21D;51367;45.204;38.576;2023-02-13T04:49:14;-1.89;80.35
64874;HTU21D;51367;45.204;38.576;2023-02-13T04:51:40;-1.87;80.33
64874;HTU21D;51367;45.204;38.576;2023-02-13T04:54:06;-1.86;80.32
64874;HTU21D;51367;45.204;38.576;2023-02-13T04:56:32;-1.86;80.33
64874;HTU21D;51367;45.204;38.576;2023-02-13T04:58:57;-1.85;80.33
64874;HTU21D;51367;45.204;38.576;2023-02-13T05:01:23;-1.82;80.35
64874;HTU21D;51367;45.204;38.576;2023-02-13T05:03:49;-1.79;80.36
64874;HTU21D;51367;45.204;38.576;2023-02-13T05:06:15;-1.76;80.35
64874;HTU21D;51367;45.204;38.576;2023-02-13T05:08:41;-1.74;80.32
64874;HTU21D;51367;45.204;38.576;2023-02-13T05:11:07;-1.71;80.30
64874;HTU21D;51367;45.204;38.576;2023-02-13T05:13:33;-1.67;80.30
64874;HTU21D;51367;45.204;38.576;2023-02-13T05:15:59;-1.63;80.24
64874;HTU21D;51367;45.204;38.576;2023-02-13T05:18:25;-1.61;80.24
64874;HTU21D;51367;45.204;38.576;2023-02-13T05:20:51;-1.56;80.22
64874;HTU21D;51367;45.204;38.576;2023-02-13T05:23:36;-1.54;80.17
64874;HTU21D;51367;45.204;38.576;2023-02-13T05:26:02;-1.50;80.14
64874;HTU21D;51367;45.204;38.576;2023-02-13T05:28:28;-1.47;80.14
64874;HTU21D;51367;45.204;38.576;2023-02-13T05:31:13;-1.42;80.11
64874;HTU21D;51367;45.204;38.576;2023-02-13T05:33:38;-1.39;80.06
64874;HTU21D;51367;45.204;38.576;2023-02-13T05:36:05;-1.35;80.06
64874;HTU21D;51367;45.204;38.576;2023-02-13T05:38:31;-1.30;80.05
64874;HTU21D;51367;45.204;38.576;2023-02-13T05:41:00;-1.24;80.04
64874;HTU21D;51367;45.204;38.576;2023-02-13T05:43:27;-1.18;79.97
64874;HTU21D;51367;45.204;38.576;2023-02-13T05:46:04;-1.11;80.00
64874;HTU21D;51367;45.204;38.576;2023-02-13T05:48:30;-1.02;80.01
64874;HTU21D;51367;45.204;38.576;2023-02-13T05:50:56;-0.93;79.96
64874;HTU21D;51367;45.204;38.576;2023-02-13T05:53:22;-0.82;79.95
64874;HTU21D;51367;45.204;38.576;2023-02-13T05:55:48;-0.70;79.93
64874;HTU21D;51367;45.204;38.576;2023-02-13T05:58:18;-0.57;79.86
64874;HTU21D;51367;45.204;38.576;2023-02-13T06:00:44;-0.43;79.82
64874;HTU21D;51367;45.204;38.576;2023-02-13T06:03:10;-0.29;79.75
64874;HTU21D;51367;45.204;38.576;2023-02-13T06:05:36;-0.15;79.56
64874;HTU21D;51367;45.204;38.576;2023-02-13T06:08:02;-0.03;79.41
64874;HTU21D;51367;45.204;38.576;2023-02-13T06:10:28;0.07;79.41
64874;HTU21D;51367;45.204;38.576;2023-02-13T06:12:54;0.29;79.57
64874;HTU21D;51367;45.204;38.576;2023-02-13T06:15:20;0.58;79.98
64874;HTU21D;51367;45.204;38.576;2023-02-13T06:17:46;0.99;80.33
64874;HTU21D;51367;45.204;38.576;2023-02-13T06:20:12;1.43;80.50
64874;HTU21D;51367;45.204;38.576;2023-02-13T06:22:38;1.93;80.70
64874;HTU21D;51367;45.204;38.576;2023-02-13T06:25:04;2.44;80.78
64874;HTU21D;51367;45.204;38.576;2023-02-13T06:27:30;2.95;80.76
64874;HTU21D;51367;45.204;38.576;2023-02-13T06:29:56;3.35;80.43
64874;HTU21D;51367;45.204;38.576;2023-02-13T06:32:22;3.75;80.29
64874;HTU21D;51367;45.204;38.576;2023-02-13T06:34:48;4.06;79.90
64874;HTU21D;51367;45.204;38.576;2023-02-13T06:37:14;4.32;79.63
64874;HTU21D;51367;45.204;38.576;2023-02-13T06:39:40;4.57;79.56
64874;HTU21D;51367;45.204;38.576;2023-02-13T06:42:07;4.84;79.50
64874;HTU21D;51367;45.204;38.576;2023-02-13T06:44:33;5.23;79.53
64874;HTU21D;51367;45.204;38.576;2023-02-13T06:46:59;5.61;79.34
64874;HTU21D;51367;45.204;38.576;2023-02-13T06:49:25;6.07;79.11
64874;HTU21D;51367;45.204;38.576;2023-02-13T06:51:50;6.45;78.51
64874;HTU21D;51367;45.204;38.576;2023-02-13T06:54:16;6.81;78.20
64874;HTU21D;51367;45.204;38.576;2023-02-13T06:56:42;7.11;77.85
64874;HTU21D;51367;45.204;38.576;2023-02-13T06:59:08;7.43;77.55
64874;HTU21D;51367;45.204;38.576;2023-02-13T07:01:34;7.53;76.79
64874;HTU21D;51367;45.204;38.576;2023-02-13T07:04:00;7.72;77.26
64874;HTU21D;51367;45.204;38.576;2023-02-13T07:06:26;7.97;77.28
64874;HTU21D;51367;45.204;38.576;2023-02-13T07:08:52;8.24;77.05
64874;HTU21D;51367;45.204;38.576;2023-02-13T07:11:22;8.52;76.58
64874;HTU21D;51367;45.204;38.576;2023-02-13T07:13:48;8.60;75.92
64874;HTU21D;51367;45.204;38.576;2023-02-13T07:16:15;8.55;76.10
64874;HTU21D;51367;45.204;38.576;2023-02-13T07:18:41;8.50;77.18
64874;HTU21D;51367;45.204;38.576;2023-02-13T07:21:07;8.73;78.75
64874;HTU21D;51367;45.204;38.576;2023-02-13T07:23:33;9.04;79.67
64874;HTU21D;51367;45.204;38.576;2023-02-13T07:25:59;9.35;80.24
64874;HTU21D;51367;45.204;38.576;2023-02-13T07:28:27;9.70;80.67
64874;HTU21D;51367;45.204;38.576;2023-02-13T07:30:54;10.00;80.73
64874;HTU21D;51367;45.204;38.576;2023-02-13T07:33:20;10.15;80.20
64874;HTU21D;51367;45.204;38.576;2023-02-13T07:35:50;10.30;80.51
64874;HTU21D;51367;45.204;38.576;2023-02-13T07:38:17;10.29;77.56
64874;HTU21D;51367;45.204;38.576;2023-02-13T07:40:43;10.22;78.87
64874;HTU21D;51367;45.204;38.576;2023-02-13T07:43:09;10.36;79.37
64874;HTU21D;51367;45.204;38.576;2023-02-13T07:45:37;10.54;79.12
64874;HTU21D;51367;45.204;38.576;2023-02-13T07:48:05;10.57;77.90
64874;HTU21D;51367;45.204;38.576;2023-02-13T07:50:31;10.57;77.34
64874;HTU21D;51367;45.204;38.576;2023-02-13T07:53:01;10.33;73.07
64874;HTU21D;51367;45.204;38.576;2023-02-13T07:55:29;9.47;73.17
64874;HTU21D;51367;45.204;38.576;2023-02-13T07:57:56;8.77;73.51
64874;HTU21D;51367;45.204;38.576;2023-02-13T08:00:23;8.57;74.60
64874;HTU21D;51367;45.204;38.576;2023-02-13T08:02:50;8.61;74.88
64874;HTU21D;51367;45.204;38.576;2023-02-13T08:05:17;8.89;75.28
64874;HTU21D;51367;45.204;38.576;2023-02-13T08:07:43;9.21;74.84
64874;HTU21D;51367;45.204;38.576;2023-02-13T08:10:11;9.54;74.56
64874;HTU21D;51367;45.204;38.576;2023-02-13T08:12:56;9.63;71.47
64874;HTU21D;51367;45.204;38.576;2023-02-13T08:15:22;9.11;71.12
64874;HTU21D;51367;45.204;38.576;2023-02-13T08:17:48;8.57;71.29
64874;HTU21D;51367;45.204;38.576;2023-02-13T08:20:14;8.05;70.67
64874;HTU21D;51367;45.204;38.576;2023-02-13T08:22:40;7.60;70.52
64874;HTU21D;51367;45.204;38.576;2023-02-13T08:25:06;7.32;71.13
64874;HTU21D;51367;45.204;38.576;2023-02-13T08:27:33;7.04;70.81
64874;HTU21D;51367;45.204;38.576;2023-02-13T08:29:59;6.67;70.65
64874;HTU21D;51367;45.204;38.576;2023-02-13T08:32:26;6.58;71.54
64874;HTU21D;51367;45.204;38.576;2023-02-13T08:34:52;6.75;72.16
64874;HTU21D;51367;45.204;38.576;2023-02-13T08:37:18;6.94;72.02
64874;HTU21D;51367;45.204;38.576;2023-02-13T08:39:44;6.99;71.44
64874;HTU21D;51367;45.204;38.576;2023-02-13T08:42:10;6.88;70.77
64874;HTU21D;51367;45.204;38.576;2023-02-13T08:44:36;6.65;70.10
64874;HTU21D;51367;45.204;38.576;2023-02-13T08:47:06;6.31;69.94
64874;HTU21D;51367;45.204;38.576;2023-02-13T08:49:32;6.07;70.09
64874;HTU21D;51367;45.204;38.576;2023-02-13T08:51:59;6.09;69.93
64874;HTU21D;51367;45.204;38.576;2023-02-13T08:54:25;6.07;69.55
64874;HTU21D;51367;45.204;38.576;2023-02-13T08:56:53;5.92;68.99
64874;HTU21D;51367;45.204;38.576;2023-02-13T08:59:19;5.69;68.68
64874;HTU21D;51367;45.204;38.576;2023-02-13T09:01:45;5.61;68.78
64874;HTU21D;51367;45.204;38.576;2023-02-13T09:04:11;5.59;68.74
64874;HTU21D;51367;45.204;38.576;2023-02-13T09:06:41;5.59;68.55
64874;HTU21D;51367;45.204;38.576;2023-02-13T09:09:07;5.56;68.22
64874;HTU21D;51367;45.204;38.576;2023-02-13T09:11:33;5.48;68.13
64874;HTU21D;51367;45.204;38.576;2023-02-13T09:13:59;5.38;67.91
64874;HTU21D;51367;45.204;38.576;2023-02-13T09:16:25;5.18;67.84
64874;HTU21D;51367;45.204;38.576;2023-02-13T09:18:51;4.97;67.73
64874;HTU21D;51367;45.204;38.576;2023-02-13T09:21:19;4.92;67.97
64874;HTU21D;51367;45.204;38.576;2023-02-13T09:23:47;4.88;67.95
64874;HTU21D;51367;45.204;38.576;2023-02-13T09:26:14;4.79;67.62
64874;HTU21D;51367;45.204;38.576;2023-02-13T09:28:40;4.63;67.55
64874;HTU21D;51367;45.204;38.576;2023-02-13T09:31:08;4.44;67.65
64874;HTU21D;51367;45.204;38.576;2023-02-13T09:33:34;4.34;67.96
64874;HTU21D;51367;45.204;38.576;2023-02-13T09:36:09;4.28;67.95
64874;HTU21D;51367;45.204;38.576;2023-02-13T09:38:35;4.08;66.60
64874;HTU21D;51367;45.204;38.576;2023-02-13T09:41:06;3.90;67.68
64874;HTU21D;51367;45.204;38.576;2023-02-13T09:43:39;3.85;68.01
64874;HTU21D;51367;45.204;38.576;2023-02-13T09:46:16;3.79;67.68
64874;HTU21D;51367;45.204;38.576;2023-02-13T09:48:44;3.75;67.52
64874;HTU21D;51367;45.204;38.576;2023-02-13T09:51:15;3.71;67.88
64874;HTU21D;51367;45.204;38.576;2023-02-13T09:53:52;3.73;67.97
64874;HTU21D;51367;45.204;38.576;2023-02-13T09:56:39;3.79;67.09
64874;HTU21D;51367;45.204;38.576;2023-02-13T10:02:11;3.79;67.99
64874;HTU21D;51367;45.204;38.576;2023-02-13T10:15:47;3.33;67.54
64874;HTU21D;51367;45.204;38.576;2023-02-13T10:18:20;3.31;67.71
64874;HTU21D;51367;45.204;38.576;2023-02-13T10:20:59;3.42;67.87
64874;HTU21D;51367;45.204;38.576;2023-02-13T10:23:39;3.54;67.68
64874;HTU21D;51367;45.204;38.576;2023-02-13T10:26:31;3.50;67.46
64874;HTU21D;51367;45.204;38.576;2023-02-13T10:32:24;3.56;67.66
64874;HTU21D;51367;45.204;38.576;2023-02-13T10:34:52;3.64;67.57
64874;HTU21D;51367;45.204;38.576;2023-02-13T10:37:21;3.63;67.43
64874;HTU21D;51367;45.204;38.576;2023-02-13T10:39:49;3.62;67.43
64874;HTU21D;51367;45.204;38.576;2023-02-13T10:42:19;3.55;67.41
64874;HTU21D;51367;45.204;38.576;2023-02-13T10:48:05;3.65;67.79
64874;HTU21D;51367;45.204;38.576;2023-02-13T11:04:59;3.86;67.28
64874;HTU21D;51367;45.204;38.576;2023-02-13T11:07:26;3.88;66.85
64874;HTU21D;51367;45.204;38.576;2023-02-13T11:09:57;3.87;67.29
64874;HTU21D;51367;45.204;38.576;2023-02-13T11:12:30;3.85;67.29
64874;HTU21D;51367;45.204;38.576;2023-02-13T11:15:06;3.77;67.28
64874;HTU21D;51367;45.204;38.576;2023-02-13T11:17:39;3.67;67.33
64874;HTU21D;51367;45.204;38.576;2023-02-13T11:20:32;3.53;67.42
64874;HTU21D;51367;45.204;38.576;2023-02-13T11:25:59;3.30;67.86
64874;HTU21D;51367;45.204;38.576;2023-02-13T11:28:31;3.26;68.01
64874;HTU21D;51367;45.204;38.576;2023-02-13T11:31:35;3.32;68.10
64874;HTU21D;51367;45.204;38.576;2023-02-13T11:34:25;3.43;68.12
64874;HTU21D;51367;45.204;38.576;2023-02-13T11:37:19;3.55;67.94
64874;HTU21D;51367;45.204;38.576;2023-02-13T11:39:47;3.63;67.88
64874;HTU21D;51367;45.204;38.576;2023-02-13T11:42:14;3.75;67.87
64874;HTU21D;51367;45.204;38.576;2023-02-13T11:44:42;3.90;67.85
64874;HTU21D;51367;45.204;38.576;2023-02-13T11:47:08;4.09;67.70
64874;HTU21D;51367;45.204;38.576;2023-02-13T11:49:36;4.19;67.41
64874;HTU21D;51367;45.204;38.576;2023-02-13T11:52:31;4.17;66.99
64874;HTU21D;51367;45.204;38.576;2023-02-13T11:55:05;3.99;67.07
64874;HTU21D;51367;45.204;38.576;2023-02-13T11:57:58;3.87;67.30
64874;HTU21D;51367;45.204;38.576;2023-02-13T12:00:33;3.74;67.41
64874;HTU21D;51367;45.204;38.576;2023-02-13T12:08:39;3.76;67.84
64874;HTU21D;51367;45.204;38.576;2023-02-13T12:11:33;3.86;67.72
64874;HTU21D;51367;45.204;38.576;2023-02-13T12:14:01;3.89;67.59
64874;HTU21D;51367;45.204;38.576;2023-02-13T12:16:37;3.90;67.46
64874;HTU21D;51367;45.204;38.576;2023-02-13T12:19:06;3.90;67.44
64874;HTU21D;51367;45.204;38.576;2023-02-13T12:21:41;3.90;67.46
64874;HTU21D;51367;45.204;38.576;2023-02-13T12:30:17;3.48;67.67
64874;HTU21D;51367;45.204;38.576;2023-02-13T12:32:51;3.48;67.93
64874;HTU21D;51367;45.204;38.576;2023-02-13T12:44:16;3.67;67.78
64874;HTU21D;51367;45.204;38.576;2023-02-13T12:49:40;3.67;67.72
64874;HTU21D;51367;45.204;38.576;2023-02-13T12:52:39;3.63;67.65
64874;HTU21D;51367;45.204;38.576;2023-02-13T13:06:49;3.19;67.88
64874;HTU21D;51367;45.204;38.576;2023-02-13T13:12:20;2.91;68.10
64874;HTU21D;51367;45.204;38.576;2023-02-13T13:27:48;2.46;68.69
64874;HTU21D;51367;45.204;38.576;2023-02-13T13:30:25;2.43;68.79
64874;HTU21D;51367;45.204;38.576;2023-02-13T13:33:01;2.42;68.85
64874;HTU21D;51367;45.204;38.576;2023-02-13T13:35:28;2.42;68.83
64874;HTU21D;51367;45.204;38.576;2023-02-13T13:38:13;2.38;68.80
64874;HTU21D;51367;45.204;38.576;2023-02-13T13:40:50;2.34;68.80
64874;HTU21D;51367;45.204;38.576;2023-02-13T13:43:26;2.30;68.84
64874;HTU21D;51367;45.204;38.576;2023-02-13T13:46:10;2.25;68.83
64874;HTU21D;51367;45.204;38.576;2023-02-13T13:49:13;2.16;68.84
64874;HTU21D;51367;45.204;38.576;2023-02-13T13:51:42;2.09;68.92
64874;HTU21D;51367;45.204;38.576;2023-02-13T13:59:54;1.81;69.18
64874;HTU21D;51367;45.204;38.576;2023-02-13T14:07:40;1.62;69.42
64874;HTU21D;51367;45.204;38.576;2023-02-13T14:31:32;1.10;69.97
64874;HTU21D;51367;45.204;38.576;2023-02-13T14:34:20;1.04;70.02
64874;HTU21D;51367;45.204;38.576;2023-02-13T14:39:36;0.87;70.16
64874;HTU21D;51367;45.204;38.576;2023-02-13T14:42:05;0.79;70.26
64874;HTU21D;51367;45.204;38.576;2023-02-13T14:44:49;0.71;70.32
64874;HTU21D;51367;45.204;38.576;2023-02-13T14:47:27;0.63;70.39
64874;HTU21D;51367;45.204;38.576;2023-02-13T14:49:56;0.55;70.44
64874;HTU21D;51367;45.204;38.576;2023-02-13T14:52:25;0.49;70.53
64874;HTU21D;51367;45.204;38.576;2023-02-13T14:55:06;0.43;70.58
64874;HTU21D;51367;45.204;38.576;2023-02-13T14:57:42;0.34;70.64
64874;HTU21D;51367;45.204;38.576;2023-02-13T15:02:41;0.22;70.79
64874;HTU21D;51367;45.204;38.576;2023-02-13T15:05:17;0.15;70.85
64874;HTU21D;51367;45.204;38.576;2023-02-13T15:07:51;0.07;70.93
64874;HTU21D;51367;45.204;38.576;2023-02-13T15:13:30;-0.06;71.05
64874;HTU21D;51367;45.204;38.576;2023-02-13T15:16:04;-0.12;71.09
64874;HTU21D;51367;45.204;38.576;2023-02-13T15:18:39;-0.19;71.13
64874;HTU21D;51367;45.204;38.576;2023-02-13T15:21:13;-0.25;71.17
64874;HTU21D;51367;45.204;38.576;2023-02-13T15:23:40;-0.31;71.22
64874;HTU21D;51367;45.204;38.576;2023-02-13T15:26:07;-0.36;71.26
64874;HTU21D;51367;45.204;38.576;2023-02-13T15:28:34;-0.41;71.32
64874;HTU21D;51367;45.204;38.576;2023-02-13T15:31:03;-0.47;71.35
64874;HTU21D;51367;45.204;38.576;2023-02-13T15:33:48;-0.54;71.41
64874;HTU21D;51367;45.204;38.576;2023-02-13T15:36:20;-0.59;71.46
64874;HTU21D;51367;45.204;38.576;2023-02-13T15:38:46;-0.65;71.49
64874;HTU21D;51367;45.204;38.576;2023-02-13T15:41:19;-0.71;71.56
64874;HTU21D;51367;45.204;38.576;2023-02-13T15:43:48;-0.74;71.64
64874;HTU21D;51367;45.204;38.576;2023-02-13T15:46:27;-0.79;71.71
64874;HTU21D;51367;45.204;38.576;2023-02-13T15:49:00;-0.82;71.74
64874;HTU21D;51367;45.204;38.576;2023-02-13T15:51:29;-0.84;71.76
64874;HTU21D;51367;45.204;38.576;2023-02-13T15:54:04;-0.88;71.79
64874;HTU21D;51367;45.204;38.576;2023-02-13T15:56:31;-0.91;71.80
64874;HTU21D;51367;45.204;38.576;2023-02-13T15:58:59;-0.94;71.84
64874;HTU21D;51367;45.204;38.576;2023-02-13T16:01:27;-0.98;71.89
64874;HTU21D;51367;45.204;38.576;2023-02-13T16:04:04;-1.00;71.91
64874;HTU21D;51367;45.204;38.576;2023-02-13T16:06:32;-1.04;71.95
64874;HTU21D;51367;45.204;38.576;2023-02-13T16:09:00;-1.05;71.99
64874;HTU21D;51367;45.204;38.576;2023-02-13T16:11:37;-1.10;72.03
64874;HTU21D;51367;45.204;38.576;2023-02-13T16:14:25;-1.12;72.05
64874;HTU21D;51367;45.204;38.576;2023-02-13T16:16:57;-1.13;72.07
64874;HTU21D;51367;45.204;38.576;2023-02-13T16:19:44;-1.15;72.10
64874;HTU21D;51367;45.204;38.576;2023-02-13T16:24:46;-1.21;72.11
64874;HTU21D;51367;45.204;38.576;2023-02-13T16:27:13;-1.26;72.16
64874;HTU21D;51367;45.204;38.576;2023-02-13T16:29:48;-1.27;72.19
64874;HTU21D;51367;45.204;38.576;2023-02-13T16:32:27;-1.30;72.20
64874;HTU21D;51367;45.204;38.576;2023-02-13T16:34:54;-1.34;72.24
64874;HTU21D;51367;45.204;38.576;2023-02-13T16:37:32;-1.40;72.27
64874;HTU21D;51367;45.204;38.576;2023-02-13T16:42:52;-1.53;72.35
64874;HTU21D;51367;45.204;38.576;2023-02-13T16:45:22;-1.60;72.40
64874;HTU21D;51367;45.204;38.576;2023-02-13T16:47:58;-1.67;72.48
64874;HTU21D;51367;45.204;38.576;2023-02-13T16:50:27;-1.74;72.54
64874;HTU21D;51367;45.204;38.576;2023-02-13T16:53:01;-1.82;72.61
64874;HTU21D;51367;45.204;38.576;2023-02-13T16:55:28;-1.90;72.69
64874;HTU21D;51367;45.204;38.576;2023-02-13T16:58:05;-1.99;72.79
64874;HTU21D;51367;45.204;38.576;2023-02-13T17:00:32;-2.03;72.85
64874;HTU21D;51367;45.204;38.576;2023-02-13T17:02:58;-2.09;73.01
64874;HTU21D;51367;45.204;38.576;2023-02-13T17:05:26;-2.15;72.99
64874;HTU21D;51367;45.204;38.576;2023-02-13T17:07:54;-2.18;73.04
64874;HTU21D;51367;45.204;38.576;2023-02-13T17:10:32;-2.24;73.09
64874;HTU21D;51367;45.204;38.576;2023-02-13T17:13:01;-2.28;73.15
64874;HTU21D;51367;45.204;38.576;2023-02-13T17:15:29;-2.30;73.21
64874;HTU21D;51367;45.204;38.576;2023-02-13T17:17:56;-2.31;73.25
64874;HTU21D;51367;45.204;38.576;2023-02-13T17:20:24;-2.31;73.28
64874;HTU21D;51367;45.204;38.576;2023-02-13T17:22:53;-2.29;73.29
64874;HTU21D;51367;45.204;38.576;2023-02-13T17:25:31;-2.27;73.32
64874;HTU21D;51367;45.204;38.576;2023-02-13T17:27:59;-2.23;73.32
64874;HTU21D;51367;45.204;38.576;2023-02-13T17:30:31;-2.19;73.32
64874;HTU21D;51367;45.204;38.576;2023-02-13T17:33:03;-2.13;73.36
64874;HTU21D;51367;45.204;38.576;2023-02-13T17:35:29;-2.07;73.37
64874;HTU21D;51367;45.204;38.576;2023-02-13T17:37:55;-2.02;73.37
64874;HTU21D;51367;45.204;38.576;2023-02-13T17:40:23;-1.97;73.39
64874;HTU21D;51367;45.204;38.576;2023-02-13T17:42:52;-1.90;73.42
64874;HTU21D;51367;45.204;38.576;2023-02-13T17:45:21;-1.85;73.44
64874;HTU21D;51367;45.204;38.576;2023-02-13T17:47:48;-1.79;73.44
64874;HTU21D;51367;45.204;38.576;2023-02-13T17:50:14;-1.73;73.42
64874;HTU21D;51367;45.204;38.576;2023-02-13T17:52:42;-1.70;73.41
64874;HTU21D;51367;45.204;38.576;2023-02-13T17:55:17;-1.64;73.38
64874;HTU21D;51367;45.204;38.576;2023-02-13T17:57:46;-1.61;73.37
64874;HTU21D;51367;45.204;38.576;2023-02-13T18:00:13;-1.61;73.38
64874;HTU21D;51367;45.204;38.576;2023-02-13T18:02:40;-1.61;73.41
64874;HTU21D;51367;45.204;38.576;2023-02-13T18:05:09;-1.63;73.41
64874;HTU21D;51367;45.204;38.576;2023-02-13T18:07:36;-1.68;73.42
64874;HTU21D;51367;45.204;38.576;2023-02-13T18:10:06;-1.70;73.48
64874;HTU21D;51367;45.204;38.576;2023-02-13T18:12:32;-1.74;73.52
64874;HTU21D;51367;45.204;38.576;2023-02-13T18:14:58;-1.75;73.57
64874;HTU21D;51367;45.204;38.576;2023-02-13T18:17:24;-1.77;73.63
64874;HTU21D;51367;45.204;38.576;2023-02-13T18:19:50;-1.76;73.70
64874;HTU21D;51367;45.204;38.576;2023-02-13T18:22:16;-1.74;73.72
64874;HTU21D;51367;45.204;38.576;2023-02-13T18:24:42;-1.73;73.73
64874;HTU21D;51367;45.204;38.576;2023-02-13T18:27:09;-1.71;73.75